Data for 10/18/2010

Time Sea-Level Adjusted Pressure Absolute Pressure Temperature Relative Humidity Dew Point   
(mb) (inHg) (mb) (inHg) (C) (F) (%) (C) (F)
00:05 1022 30.18 851 25.13 4.8 40.6 73 0.3 32.5
00:10 1022 30.18 851 25.13 4.8 40.7 71 0.1 32.1
00:15 1022 30.18 851 25.13 4.4 40 75 0.4 32.8
00:20 1022 30.18 851 25.13 4.4 39.9 75 0.4 32.7
00:25 1022 30.18 851 25.13 4.4 39.9 75 0.3 32.6
00:30 1022 30.18 851 25.13 4.4 39.9 75 0.4 32.7
00:35 1022 30.18 851 25.13 4.2 39.6 75 0.2 32.3
00:40 1022 30.18 851 25.13 4.4 39.9 73 0 32.1
00:45 1022 30.18 851 25.13 4.3 39.8 74 0.1 32.2
00:50 1022 30.18 851 25.13 4.1 39.3 76 0.2 32.3
00:55 1022 30.18 851 25.13 4 39.3 75 0.1 32.2
01:00 1022 30.18 851 25.13 4 39.2 76 0.1 32.1
01:05 1022 30.18 851 25.13 3.9 39 75 -0.2 31.7
01:10 1022 30.18 851 25.13 3.9 39.1 75 -0.1 31.8
01:15 1022 30.18 851 25.13 3.8 38.9 75 -0.1 31.8
01:20 1022 30.18 851 25.13 3.7 38.7 76 -0.1 31.8
01:25 1022 30.18 851 25.13 3.7 38.7 76 -0.1 31.8
01:30 1022 30.18 851 25.13 3.7 38.6 76 -0.1 31.8
01:35 1022 30.18 851 25.13 3.6 38.5 77 -0 31.9
01:40 1022 30.18 851 25.13 3.6 38.4 78 0 32.1
01:45 1022 30.18 851 25.13 3.7 38.6 78 0.1 32.2
01:50 1022 30.18 851 25.13 3.4 38.2 78 0 32.1
01:55 1022 30.18 851 25.13 3.4 38.1 80 0.2 32.4
02:00 1022 30.18 851 25.13 3.5 38.3 79 0.2 32.3
02:05 1022 30.18 851 25.13 3.4 38.2 80 0.3 32.5
02:10 1022 30.18 851 25.13 3.3 37.9 80 0.1 32.2
02:15 1022 30.18 851 25.13 3.2 37.7 80 -0 31.9
02:20 1022 30.18 851 25.13 3 37.5 80 -0.1 31.8
02:25 1022 30.18 851 25.13 3 37.4 80 -0 31.9
02:30 1022 30.18 851 25.13 3.1 37.5 80 0 32
02:35 1022 30.18 851 25.13 3.1 37.5 80 -0 31.9
02:40 1022 30.18 851 25.13 3 37.4 80 -0.1 31.9
02:45 1022 30.18 851 25.13 2.9 37.3 80 -0.1 31.8
02:50 1022 30.18 851 25.13 2.8 37.1 81 -0.1 31.7
02:55 1022 30.18 851 25.13 2.9 37.2 80 -0.3 31.5
03:00 1022 30.18 852 25.16 2.8 37 80 -0.3 31.5
03:05 1022 30.18 852 25.16 2.7 36.9 80 -0.4 31.4
03:10 1022 30.18 852 25.16 2.6 36.7 80 -0.4 31.2
03:15 1023 30.21 852 25.16 2.6 36.7 80 -0.4 31.2
03:20 1023 30.21 852 25.16 2.5 36.6 80 -0.6 31
03:25 1023 30.21 852 25.16 2.4 36.4 81 -0.6 31
03:30 1023 30.21 852 25.16 2.4 36.3 81 -0.6 31
03:35 1023 30.21 852 25.16 2.4 36.4 81 -0.6 30.9
03:40 1023 30.21 852 25.16 2.4 36.4 81 -0.5 31.2
03:45 1023 30.21 852 25.16 2.5 36.5 81 -0.4 31.2
03:50 1023 30.21 852 25.16 2.5 36.6 81 -0.5 31.2
03:55 1023 30.21 852 25.16 2.5 36.5 80 -0.5 31
04:00 1023 30.21 852 25.16 2.4 36.4 80 -0.6 30.9
04:05 1023 30.21 852 25.16 2.4 36.2 81 -0.6 30.9
04:10 1023 30.21 852 25.16 2.4 36.3 81 -0.5 31
04:15 1023 30.21 852 25.16 2.4 36.3 81 -0.6 30.9
04:20 1023 30.21 852 25.16 2.4 36.3 80 -0.8 30.6
04:25 1023 30.21 852 25.16 2.3 36.2 79 -1 30.3
04:30 1023 30.21 852 25.16 2.2 36 80 -0.9 30.4
04:35 1023 30.21 852 25.16 1.9 35.5 81 -1.1 30.1
04:40 1023 30.21 852 25.16 1.8 35.2 81 -1.2 29.9
04:45 1023 30.21 852 25.16 1.7 35.1 80 -1.3 29.7
04:50 1023 30.21 852 25.16 1.7 35.1 81 -1.2 29.9
04:55 1023 30.21 852 25.16 1.7 35.1 80 -1.3 29.7
05:00 1023 30.21 852 25.16 1.7 35 81 -1.2 29.8
05:05 1023 30.21 852 25.16 1.5 34.7 83 -1.2 29.9
05:10 1023 30.21 852 25.16 1.5 34.7 82 -1.3 29.6
05:15 1023 30.21 852 25.16 1.7 35 81 -1.2 29.9
05:20 1023 30.21 852 25.16 1.6 34.8 83 -1.1 30.1
05:25 1023 30.21 852 25.16 1.5 34.7 82 -1.3 29.7
05:30 1023 30.21 852 25.16 1.5 34.6 82 -1.3 29.7
05:35 1023 30.21 852 25.16 1.3 34.3 83 -1.3 29.7
05:40 1023 30.21 852 25.16 1.3 34.3 83 -1.4 29.6
05:45 1023 30.21 852 25.16 1.3 34.3 82 -1.5 29.4
05:50 1023 30.21 852 25.16 1.2 34.1 83 -1.3 29.6
05:55 1023 30.21 852 25.16 1.2 34.2 82 -1.5 29.4
06:00 1023 30.21 852 25.16 1.3 34.3 82 -1.5 29.4
06:05 1023 30.21 852 25.16 1.1 34 82 -1.6 29.1
06:10 1023 30.21 852 25.16 1.2 34.1 82 -1.6 29.1
06:15 1023 30.21 852 25.16 1.1 33.9 82 -1.7 29
06:20 1023 30.21 852 25.16 1 33.8 81 -1.8 28.7
06:25 1023 30.21 852 25.16 1 33.9 81 -1.9 28.7
06:30 1023 30.21 852 25.16 1.1 34 80 -1.9 28.6
06:35 1023 30.21 852 25.16 1.1 34 80 -1.9 28.5
06:40 1023 30.21 852 25.16 1.1 34 80 -1.9 28.6
06:45 1023 30.21 852 25.16 1 33.8 81 -1.9 28.5
06:50 1023 30.21 852 25.16 1.1 34.1 80 -1.9 28.6
06:55 1023 30.21 852 25.16 1.3 34.3 79 -1.9 28.6
07:00 1023 30.21 852 25.16 1.3 34.4 79 -1.9 28.5
07:05 1023 30.21 852 25.16 1.3 34.3 79 -2 28.4
07:10 1023 30.21 852 25.16 1.3 34.4 79 -2 28.4
07:15 1023 30.21 852 25.16 1.2 34.1 79 -2 28.4
07:20 1023 30.21 852 25.16 1 33.9 80 -2 28.4
07:25 1023 30.21 852 25.16 1 33.8 79 -2.2 28
07:30 1023 30.21 852 25.16 1.3 34.4 78 -2.1 28.3
07:35 1023 30.21 852 25.16 1.4 34.5 78 -2 28.4
07:40 1023 30.21 852 25.16 1.2 34.1 79 -2.1 28.2
07:45 1023 30.21 852 25.16 1 33.7 79 -2.2 28
07:50 1023 30.21 852 25.16 0.5 32.9 81 -2.3 27.8
07:55 1023 30.21 852 25.16 0.5 32.9 82 -2.2 28
08:00 1023 30.21 852 25.16 0.6 33 82 -2.2 28.1
08:05 1023 30.21 852 25.16 0.8 33.4 80 -2.2 28
08:10 1023 30.21 852 25.16 1 33.9 79 -2.1 28.2
08:15 1023 30.21 852 25.16 1.2 34.1 79 -2.2 28.1
08:20 1023 30.21 852 25.16 1.3 34.4 78 -2.2 28.1
08:25 1023 30.21 852 25.16 1.6 34.9 77 -2.1 28.2
08:30 1023 30.21 852 25.16 1.7 35.1 77 -2 28.4
08:35 1023 30.21 852 25.16 1.8 35.2 76 -2.1 28.3
08:40 1023 30.21 852 25.16 2.1 35.7 74 -2 28.4
08:45 1023 30.21 852 25.16 2.5 36.4 72 -2 28.4
08:50 1023 30.21 852 25.16 2.7 36.9 71 -2 28.5
08:55 1023 30.21 852 25.16 3 37.5 71 -1.8 28.8
09:00 1023 30.21 853 25.19 3.5 38.2 68 -1.8 28.7
09:05 1023 30.21 853 25.19 4.3 39.7 65 -1.7 28.9
09:10 1023 30.21 853 25.19 5.1 41.2 63 -1.3 29.6
09:15 1024 30.24 853 25.19 5.7 42.2 60 -1.4 29.4
09:20 1024 30.24 853 25.19 6.1 43 60 -1 30.2
09:25 1024 30.24 853 25.19 6.3 43.3 59 -1 30.1
09:30 1024 30.24 853 25.19 6.4 43.5 62 -0.4 31.3
09:35 1024 30.24 853 25.19 6.1 43 61 -0.9 30.3
09:40 1024 30.24 853 25.19 6.1 43 60 -1 30.3
09:45 1023 30.21 853 25.19 6 42.8 61 -0.8 30.5
09:50 1023 30.21 853 25.19 5.9 42.6 61 -1.1 30
09:55 1023 30.21 853 25.19 6 42.7 61 -0.9 30.3
10:00 1023 30.21 853 25.19 6.2 43.1 59 -1.1 30
10:05 1023 30.21 853 25.19 6.5 43.7 58 -1.1 30.1
10:10 1023 30.21 853 25.19 7.2 44.9 59 -0.4 31.3
10:15 1023 30.21 853 25.19 7.3 45.1 57 -0.6 30.9
10:20 1023 30.21 853 25.19 7 44.6 56 -1.2 29.9
10:25 1023 30.21 853 25.19 7.1 44.8 57 -0.8 30.5
10:30 1023 30.21 853 25.19 6.9 44.5 56 -1.1 29.9
10:35 1023 30.21 853 25.19 7.4 45.3 56 -0.8 30.6
10:40 1023 30.21 853 25.19 8.3 46.9 50 -1.5 29.3
10:45 1023 30.21 853 25.19 8.6 47.5 50 -1.1 30
10:50 1023 30.21 852 25.16 8.4 47 54 -0.3 31.4
10:55 1023 30.21 852 25.16 8.6 47.4 53 -0.3 31.4
11:00 1023 30.21 852 25.16 8.9 48 47 -1.8 28.7
11:05 1023 30.21 853 25.19 9 48.2 44 -2.4 27.7
11:10 1023 30.21 852 25.16 9.2 48.5 43 -2.8 26.9
11:15 1023 30.21 852 25.16 9.2 48.5 49 -0.9 30.4
11:20 1023 30.21 853 25.19 9 48.1 47 -1.6 29.1
11:25 1023 30.21 853 25.19 9 48.2 45 -2.4 27.7
11:30 1023 30.21 853 25.19 9.1 48.3 46 -1.9 28.6
11:35 1023 30.21 852 25.16 10 50 41 -2.7 27.2
11:40 1023 30.21 852 25.16 10.2 50.3 41 -2.3 27.9
11:45 1023 30.21 852 25.16 10.6 51 40 -2.5 27.5
11:50 1023 30.21 852 25.16 11 51.9 39 -2.3 27.8
11:55 1023 30.21 852 25.16 11.2 52.1 39 -2.4 27.7
12:00 1023 30.21 852 25.16 11.2 52.1 40 -1.8 28.8
12:05 1023 30.21 852 25.16 10.4 50.8 43 -1.6 29.2
12:10 1023 30.21 852 25.16 10.3 50.5 42 -2.2 28.1
12:15 1023 30.21 852 25.16 9.8 49.7 46 -1.3 29.7
12:20 1023 30.21 852 25.16 10.1 50.2 44 -1.6 29.2
12:25 1023 30.21 852 25.16 11 51.7 41 -1.8 28.8
12:30 1023 30.21 852 25.16 11.6 52.9 40 -1.5 29.3
12:35 1023 30.21 852 25.16 11.8 53.2 40 -1.5 29.4
12:40 1022 30.18 852 25.16 11.5 52.7 42 -0.9 30.4
12:45 1022 30.18 852 25.16 11 51.7 40 -2.1 28.2
12:50 1022 30.18 851 25.13 11.8 53.2 40 -1.4 29.4
12:55 1022 30.18 851 25.13 11.9 53.5 38 -1.9 28.6
13:00 1022 30.18 851 25.13 10.7 51.2 42 -1.7 28.9
13:05 1022 30.18 851 25.13 11 51.8 40 -2.1 28.2
13:10 1022 30.18 851 25.13 10.9 51.7 40 -2.1 28.3
13:15 1022 30.18 851 25.13 12.1 53.7 37 -2 28.4
13:20 1022 30.18 851 25.13 11.7 53 40 -1.3 29.6
13:25 1022 30.18 851 25.13 11.3 52.3 38 -2.4 27.8
13:30 1022 30.18 851 25.13 11.4 52.5 38 -2.5 27.4
13:35 1022 30.18 851 25.13 12.2 54 35 -2.7 27.2
13:40 1022 30.18 851 25.13 11.5 52.7 38 -2.3 27.8
13:45 1022 30.18 851 25.13 11.2 52.2 38 -2.5 27.6
13:50 1021 30.15 851 25.13 10.5 51 39 -3 26.7
13:55 1021 30.15 851 25.13 11.1 52 36 -3.5 25.7
14:00 1021 30.15 851 25.13 12.6 54.7 33 -3.3 26.1
14:05 1021 30.15 851 25.13 13.2 55.8 34 -2.4 27.6
14:10 1021 30.15 851 25.13 13.4 56.1 33 -2.3 27.9
14:15 1021 30.15 851 25.13 13.2 55.7 36 -1.4 29.4
14:20 1021 30.15 850 25.1 12.1 53.8 38 -1.8 28.7
14:25 1021 30.15 850 25.1 11.8 53.2 37 -2.5 27.5
14:30 1021 30.15 850 25.1 11.7 53.1 35 -3 26.5
14:35 1021 30.15 850 25.1 12.7 54.9 33 -3.1 26.4
14:40 1021 30.15 850 25.1 12.6 54.7 33 -3.4 25.9
14:45 1021 30.15 850 25.1 13.1 55.5 32 -3 26.5
14:50 1021 30.15 850 25.1 13.5 56.3 32 -2.8 26.9
14:55 1021 30.15 850 25.1 13.7 56.7 31 -3 26.6
15:00 1021 30.15 850 25.1 13.7 56.6 31 -2.9 26.7
15:05 1021 30.15 850 25.1 14.1 57.3 32 -2.4 27.6
15:10 1021 30.15 850 25.1 13.9 57.1 32 -2.4 27.6
15:15 1021 30.15 850 25.1 14.1 57.4 32 -2.5 27.6
15:20 1021 30.15 850 25.1 14.2 57.6 30 -2.8 26.9
15:25 1021 30.15 850 25.1 14.4 57.9 30 -2.8 26.9
15:30 1021 30.15 850 25.1 14.3 57.8 31 -2.4 27.7
15:35 1021 30.15 850 25.1 14.1 57.4 31 -2.9 26.8
15:40 1021 30.15 850 25.1 14.4 57.9 31 -2.6 27.3
15:45 1021 30.15 850 25.1 14.6 58.2 31 -2.5 27.5
15:50 1021 30.15 850 25.1 14.3 57.7 31 -2.6 27.3
15:55 1021 30.15 850 25.1 14.2 57.6 31 -2.4 27.6
16:00 1021 30.15 850 25.1 14.4 57.9 32 -2.2 28
16:05 1021 30.15 850 25.1 14.2 57.6 32 -2.4 27.7
16:10 1020 30.12 850 25.1 14 57.2 32 -2.4 27.6
16:15 1020 30.12 850 25.1 13.9 57 32 -2.5 27.5
16:20 1020 30.12 850 25.1 13.7 56.7 32 -2.7 27.1
16:25 1020 30.12 850 25.1 14 57.1 30 -3.1 26.4
16:30 1020 30.12 850 25.1 14.4 58 30 -2.7 27.2
16:35 1020 30.12 850 25.1 14.5 58.1 30 -2.7 27.1
16:40 1020 30.12 850 25.1 14.6 58.3 30 -2.9 26.8
16:45 1020 30.12 850 25.1 14.6 58.3 28 -3.6 25.5
16:50 1020 30.12 850 25.1 15 59.1 27 -3.7 25.3
16:55 1020 30.12 849 25.07 15 59 28 -3.3 26
17:00 1020 30.12 850 25.1 15.1 59.1 28 -3.3 26.1
17:05 1020 30.12 850 25.1 14.8 58.6 30 -2.5 27.6
17:10 1020 30.12 850 25.1 14.5 58.1 29 -3.1 26.4
17:15 1020 30.12 849 25.07 14.3 57.7 28 -4.1 24.7
17:20 1020 30.12 849 25.07 14.1 57.4 27 -4.4 24
17:25 1020 30.12 849 25.07 14 57.2 28 -4.2 24.5
17:30 1020 30.12 849 25.07 13.7 56.6 28 -4.6 23.8
17:35 1020 30.12 849 25.07 13.4 56.1 29 -4.2 24.4
17:40 1020 30.12 849 25.07 13.2 55.7 30 -3.9 24.9
17:45 1020 30.12 850 25.1 12.9 55.3 31 -3.7 25.3
17:50 1020 30.12 850 25.1 12.9 55.3 30 -4 24.7
17:55 1020 30.12 850 25.1 13.2 55.7 30 -3.7 25.3
18:00 1020 30.12 850 25.1 13.4 56.1 34 -2.2 28.1
18:05 1020 30.12 850 25.1 13.1 55.6 37 -1.3 29.7
18:10 1020 30.12 849 25.07 12.4 54.3 38 -1.4 29.5
18:15 1020 30.12 849 25.07 12 53.6 40 -1.1 30.1
18:20 1020 30.12 849 25.07 11.6 52.9 42 -0.9 30.4
18:25 1020 30.12 849 25.07 11.3 52.3 43 -0.9 30.4
18:30 1020 30.12 849 25.07 11.1 52.1 45 -0.2 31.6
18:35 1020 30.12 849 25.07 10.5 50.9 51 0.8 33.5
18:40 1020 30.12 849 25.07 9.8 49.7 57 1.8 35.2
18:45 1020 30.12 849 25.07 9 48.2 58 1.3 34.3
18:50 1020 30.12 849 25.07 8.8 47.8 59 1.2 34.2
18:55 1020 30.12 849 25.07 8.4 47.1 61 1.3 34.4
19:00 1020 30.12 849 25.07 8.1 46.6 62 1.4 34.5
19:05 1020 30.12 850 25.1 7.9 46.2 63 1.4 34.4
19:10 1020 30.12 850 25.1 7.8 46 63 1.2 34.2
19:15 1020 30.12 850 25.1 7.8 46 63 1.3 34.3
19:20 1020 30.12 850 25.1 7.7 45.8 63 1.2 34.1
19:25 1020 30.12 850 25.1 7.8 46 62 1.1 34
19:30 1021 30.15 850 25.1 7.9 46.3 62 1.2 34.2
19:35 1021 30.15 850 25.1 7.7 45.9 63 1.1 34
19:40 1021 30.15 850 25.1 7.6 45.7 63 1.1 34
19:45 1021 30.15 850 25.1 7.5 45.5 63 1 33.8
19:50 1021 30.15 850 25.1 7.5 45.5 63 1 33.8
19:55 1021 30.15 850 25.1 7.3 45.1 64 1.1 33.9
20:00 1021 30.15 850 25.1 7.1 44.8 63 0.6 33.1
20:05 1021 30.15 850 25.1 7.1 44.8 62 0.4 32.7
20:10 1021 30.15 850 25.1 6.8 44.3 64 0.4 32.8
20:15 1021 30.15 850 25.1 6.8 44.2 62 0.1 32.2
20:20 1021 30.15 850 25.1 6.8 44.2 61 -0.1 31.8
20:25 1021 30.15 850 25.1 6.9 44.4 61 -0 32
20:30 1021 30.15 850 25.1 6.6 43.9 63 0 32
20:35 1021 30.15 850 25.1 6.3 43.4 64 0.1 32.2
20:40 1021 30.15 850 25.1 6 42.8 64 -0.2 31.6
20:45 1021 30.15 850 25.1 6 42.9 62 -0.7 30.7
20:50 1021 30.15 850 25.1 6.5 43.6 60 -0.7 30.7
20:55 1021 30.15 851 25.13 6.4 43.5 60 -0.9 30.4
21:00 1021 30.15 851 25.13 6.3 43.4 60 -0.9 30.4
21:05 1021 30.15 851 25.13 6.2 43.2 60 -0.9 30.4
21:10 1021 30.15 851 25.13 6.2 43.2 59 -1.1 30.1
21:15 1022 30.18 851 25.13 6.3 43.3 59 -1.2 29.9
21:20 1022 30.18 851 25.13 6.5 43.7 57 -1.3 29.6
21:25 1022 30.18 851 25.13 6.8 44.2 56 -1.4 29.5
21:30 1022 30.18 851 25.13 6.6 43.9 59 -0.9 30.4
21:35 1022 30.18 851 25.13 6.2 43.1 58 -1.5 29.3
21:40 1022 30.18 851 25.13 6.5 43.6 57 -1.4 29.4
21:45 1022 30.18 851 25.13 6.9 44.5 53 -1.9 28.6
21:50 1022 30.18 851 25.13 7.3 45.1 53 -1.6 29.1
21:55 1022 30.18 851 25.13 7.3 45.1 53 -1.8 28.8
22:00 1022 30.18 851 25.13 7.4 45.3 49 -2.6 27.3
22:05 1022 30.18 851 25.13 7.6 45.6 50 -2.2 28
22:10 1022 30.18 851 25.13 7.5 45.5 50 -2.3 27.8
22:15 1022 30.18 851 25.13 7.5 45.5 51 -2 28.3
22:20 1021 30.15 851 25.13 7.2 45 50 -2.6 27.4
22:25 1022 30.18 851 25.13 7.3 45.2 49 -2.7 27.1
22:30 1022 30.18 851 25.13 7.5 45.6 47 -3 26.6
22:35 1022 30.18 851 25.13 7.6 45.8 47 -3 26.5
22:40 1022 30.18 851 25.13 7.7 45.8 47 -3 26.6
22:45 1022 30.18 851 25.13 7.4 45.3 48 -2.8 27
22:50 1022 30.18 851 25.13 6.9 44.5 51 -2.6 27.3
22:55 1022 30.18 851 25.13 6.7 44.1 48 -3.6 25.5
23:00 1022 30.18 851 25.13 6.9 44.4 46 -3.8 25.2
23:05 1022 30.18 851 25.13 7 44.6 46 -3.9 25
23:10 1022 30.18 851 25.13 7 44.6 46 -3.9 25
23:15 1022 30.18 851 25.13 7.1 44.8 42 -4.8 23.4
23:20 1022 30.18 851 25.13 7.5 45.4 41 -4.9 23.3
23:25 1022 30.18 851 25.13 7.6 45.6 40 -5.2 22.6
23:30 1022 30.18 851 25.13 7.5 45.5 40 -5.2 22.7
23:35 1022 30.18 851 25.13 7.6 45.7 40 -5.2 22.7
23:40 1022 30.18 851 25.13 7.5 45.5 41 -5 23
23:45 1022 30.18 851 25.13 7.3 45.1 42 -4.8 23.4
23:50 1022 30.18 851 25.13 7 44.6 44 -4.4 24
23:55 1022 30.18 851 25.13 6.5 43.7 45 -4.5 23.8
24:00 1022 30.18 851 25.13 5.7 42.3 51 -3.7 25.4